createdAt,value
2023-01-20T00:00:43.874Z,15.50
2023-01-20T00:03:10.471Z,14.02
2023-01-20T00:05:37.069Z,16.55
2023-01-20T00:08:03.708Z,15.43
2023-01-20T00:10:30.359Z,17.55
2023-01-20T00:12:56.932Z,15.55
2023-01-20T00:15:23.529Z,15.32
2023-01-20T00:17:50.111Z,17.40
2023-01-20T00:20:17.115Z,16.63
2023-01-20T00:22:43.681Z,18.90
2023-01-20T00:25:10.780Z,17.33
2023-01-20T00:27:37.399Z,17.48
2023-01-20T00:30:04.676Z,17.60
2023-01-20T00:32:31.264Z,17.95
2023-01-20T00:34:57.846Z,18.85
2023-01-20T00:37:24.439Z,18.67
2023-01-20T00:39:51.050Z,21.15
2023-01-20T00:42:17.619Z,21.10
2023-01-20T00:44:44.236Z,18.33
2023-01-20T00:47:10.801Z,24.95
2023-01-20T00:49:37.407Z,19.88
2023-01-20T00:52:04.122Z,17.48
2023-01-20T00:54:30.815Z,21.10
2023-01-20T00:56:57.561Z,19.13
2023-01-20T00:59:24.138Z,20.13
2023-01-20T01:01:50.938Z,18.30
2023-01-20T01:04:17.562Z,17.80
2023-01-20T01:06:44.166Z,19.42
2023-01-20T01:09:10.758Z,16.13
2023-01-20T01:11:37.455Z,17.38
2023-01-20T01:14:04.053Z,17.90
2023-01-20T01:16:30.698Z,17.05
2023-01-20T01:18:57.342Z,17.98
2023-01-20T01:21:23.935Z,18.05
2023-01-20T01:23:52.577Z,18.55
2023-01-20T01:26:19.566Z,18.73
2023-01-20T01:28:50.128Z,19.23
2023-01-20T01:31:18.936Z,21.88
2023-01-20T01:33:45.558Z,18.67
2023-01-20T01:36:14.180Z,17.52
2023-01-20T01:38:40.947Z,18.70
2023-01-20T01:41:07.556Z,18.98
2023-01-20T01:43:36.485Z,19.52
2023-01-20T01:46:04.338Z,19.08
2023-01-20T01:48:40.203Z,18.95
2023-01-20T01:51:31.432Z,20.70
2023-01-20T01:54:15.822Z,18.48
2023-01-20T01:56:44.511Z,22.45
2023-01-20T01:59:12.976Z,23.52
2023-01-20T02:01:42.983Z,21.25
2023-01-20T02:04:13.446Z,21.80
2023-01-20T02:06:42.488Z,27.42
2023-01-20T02:09:09.401Z,25.42
2023-01-20T02:11:41.521Z,25.20
2023-01-20T02:14:09.089Z,24.50
2023-01-20T02:16:51.994Z,22.27
2023-01-20T02:19:31.371Z,23.95
2023-01-20T02:22:03.240Z,26.38
2023-01-20T02:24:38.580Z,22.58
2023-01-20T02:27:33.805Z,19.40
2023-01-20T02:30:23.909Z,21.25
2023-01-20T02:32:53.265Z,20.05
2023-01-20T02:35:33.619Z,21.50
2023-01-20T02:38:21.144Z,22.95
2023-01-20T02:40:47.682Z,14.80
2023-01-20T02:43:27.883Z,24.42
2023-01-20T02:46:06.882Z,12.50
2023-01-20T02:48:59.301Z,16.05
2023-01-20T02:51:29.849Z,20.58
2023-01-20T02:54:02.269Z,19.27
2023-01-20T02:56:31.501Z,19.85
2023-01-20T02:59:13.278Z,17.05
2023-01-20T03:01:51.352Z,15.43
2023-01-20T03:04:23.397Z,19.55
2023-01-20T03:06:54.422Z,17.65
2023-01-20T03:09:39.454Z,16.33
2023-01-20T03:12:22.361Z,18.98
2023-01-20T03:14:51.880Z,18.42
2023-01-20T03:17:19.961Z,17.50
2023-01-20T03:19:46.936Z,21.98
2023-01-20T03:22:13.705Z,19.98
2023-01-20T03:24:42.843Z,21.17
2023-01-20T03:27:11.275Z,19.20
2023-01-20T03:29:38.220Z,17.02
2023-01-20T03:32:07.353Z,16.23
2023-01-20T03:34:36.956Z,14.32
2023-01-20T03:37:04.748Z,17.75
2023-01-20T03:39:32.546Z,16.77
2023-01-20T03:42:30.732Z,16.15
2023-01-20T03:45:24.321Z,15.20
2023-01-20T03:48:12.462Z,19.08
2023-01-20T03:50:58.944Z,16.13
2023-01-20T03:53:28.371Z,15.88
2023-01-20T03:56:15.840Z,17.25
2023-01-20T03:58:46.710Z,17.27
2023-01-20T04:01:18.002Z,19.77
2023-01-20T04:03:48.337Z,19.38
2023-01-20T04:06:17.935Z,17.63
2023-01-20T04:08:50.462Z,18.33
2023-01-20T04:11:17.233Z,16.65
2023-01-20T04:13:43.832Z,18.42
2023-01-20T04:16:15.072Z,19.35
2023-01-20T04:18:43.513Z,20.30
2023-01-20T04:21:16.267Z,15.40
2023-01-20T04:23:49.259Z,14.50
2023-01-20T04:26:15.878Z,16.08
2023-01-20T04:28:42.470Z,18.65
2023-01-20T04:31:21.147Z,15.45
2023-01-20T04:33:55.414Z,15.27
2023-01-20T04:36:22.045Z,18.45
2023-01-20T04:38:48.610Z,15.55
2023-01-20T04:41:15.209Z,19.00
2023-01-20T04:43:44.883Z,18.25
2023-01-20T04:46:16.211Z,16.63
2023-01-20T04:48:45.260Z,19.00
2023-01-20T04:51:12.730Z,16.48
2023-01-20T04:53:39.386Z,15.45
2023-01-20T04:56:14.937Z,14.68
2023-01-20T04:58:42.632Z,16.88
2023-01-20T05:01:09.679Z,15.88
2023-01-20T05:03:36.670Z,18.30
2023-01-20T05:06:03.341Z,15.80
2023-01-20T05:08:29.997Z,13.88
2023-01-20T05:10:56.672Z,16.05
2023-01-20T05:13:23.613Z,15.13
2023-01-20T05:15:50.251Z,14.50
2023-01-20T05:18:16.878Z,13.70
2023-01-20T05:20:47.227Z,12.13
2023-01-20T05:23:13.961Z,14.38
2023-01-20T05:25:40.595Z,12.82
2023-01-20T05:28:07.662Z,12.43
2023-01-20T05:30:34.426Z,14.48
2023-01-20T05:33:01.066Z,15.25
2023-01-20T05:35:27.695Z,13.10
2023-01-20T05:37:54.769Z,13.73
2023-01-20T05:40:21.883Z,12.70
2023-01-20T05:42:48.473Z,13.65
2023-01-20T05:45:15.365Z,15.20
2023-01-20T05:47:42.153Z,12.75
2023-01-20T05:50:09.375Z,13.13
2023-01-20T05:52:35.944Z,13.13
2023-01-20T05:55:02.526Z,12.40
2023-01-20T05:57:29.107Z,14.57
2023-01-20T05:59:55.741Z,13.52
2023-01-20T06:02:22.444Z,13.10
2023-01-20T06:04:49.601Z,13.07
2023-01-20T06:07:16.236Z,13.77
2023-01-20T06:09:42.853Z,12.85
2023-01-20T06:12:09.510Z,13.95
2023-01-20T06:14:36.141Z,15.05
2023-01-20T06:17:02.765Z,14.95
2023-01-20T06:19:29.378Z,13.65
2023-01-20T06:21:56.013Z,10.13
2023-01-20T06:24:22.618Z,13.60
2023-01-20T06:26:52.514Z,13.57
2023-01-20T06:29:19.223Z,13.88
2023-01-20T06:31:46.556Z,14.27
2023-01-20T06:34:13.575Z,9.60
2023-01-20T06:36:40.208Z,13.45
2023-01-20T06:39:06.893Z,14.20
2023-01-20T06:41:33.707Z,13.25
2023-01-20T06:44:00.428Z,8.50
2023-01-20T06:46:27.130Z,14.82
2023-01-20T06:49:00.163Z,12.13
2023-01-20T06:51:28.815Z,13.68
2023-01-20T06:53:56.075Z,5.72
2023-01-20T06:56:23.180Z,11.85
2023-01-20T06:58:50.436Z,12.82
2023-01-20T07:01:25.592Z,12.02
2023-01-20T07:03:52.383Z,12.27
2023-01-20T07:06:31.236Z,13.05
2023-01-20T07:08:59.056Z,9.10
2023-01-20T07:11:26.039Z,12.88
2023-01-20T07:13:52.762Z,11.82
2023-01-20T07:16:19.373Z,11.90
2023-01-20T07:18:50.933Z,11.35
2023-01-20T07:21:17.940Z,7.03
2023-01-20T07:23:45.385Z,13.98
2023-01-20T07:26:19.232Z,4.63
2023-01-20T07:28:46.768Z,13.48
2023-01-20T07:31:16.613Z,13.38
2023-01-20T07:33:43.656Z,10.70
2023-01-20T07:36:11.491Z,12.82
2023-01-20T07:38:38.551Z,11.43
2023-01-20T07:41:08.323Z,14.57
2023-01-20T07:43:34.916Z,14.23
2023-01-20T07:46:03.354Z,13.07
2023-01-20T07:48:31.713Z,7.13
2023-01-20T07:51:02.737Z,8.85
2023-01-20T07:53:30.289Z,11.77
2023-01-20T07:55:59.839Z,12.20
2023-01-20T07:58:26.417Z,8.63
2023-01-20T08:00:53.039Z,7.35
2023-01-20T08:03:19.697Z,7.50
2023-01-20T08:05:46.292Z,5.97
2023-01-20T08:08:12.937Z,3.42
2023-01-20T08:10:39.599Z,10.27
2023-01-20T08:13:06.315Z,5.05
2023-01-20T08:15:32.888Z,9.65
2023-01-20T08:18:00.248Z,10.63
2023-01-20T08:20:26.974Z,9.55
2023-01-20T08:22:53.642Z,7.00
2023-01-20T08:25:20.295Z,10.02
2023-01-20T08:27:49.037Z,11.23
2023-01-20T08:30:15.762Z,8.52
2023-01-20T08:32:42.368Z,6.03
2023-01-20T08:35:09.119Z,8.80
2023-01-20T08:37:37.052Z,13.85
2023-01-20T08:40:07.530Z,11.20
2023-01-20T08:42:34.177Z,5.25
2023-01-20T08:45:00.888Z,7.90
2023-01-20T08:47:27.512Z,13.07
2023-01-20T08:49:54.285Z,9.55
2023-01-20T08:52:20.867Z,8.45
2023-01-20T08:54:47.535Z,7.72
2023-01-20T08:57:15.817Z,9.63
2023-01-20T08:59:42.482Z,8.60
2023-01-20T09:02:10.645Z,8.90
2023-01-20T09:04:37.972Z,7.80
2023-01-20T09:07:05.424Z,9.93
2023-01-20T09:09:32.173Z,10.65
2023-01-20T09:11:58.775Z,7.15
2023-01-20T09:14:25.583Z,7.63
2023-01-20T09:16:52.466Z,7.25
2023-01-20T09:19:19.225Z,9.80
2023-01-20T09:21:45.827Z,5.38
2023-01-20T09:24:12.497Z,5.75
2023-01-20T09:26:39.259Z,9.98
2023-01-20T09:29:14.052Z,11.18
2023-01-20T09:31:48.923Z,12.18
2023-01-20T09:34:21.228Z,12.77
2023-01-20T09:36:52.992Z,11.90
2023-01-20T09:39:38.605Z,10.63
2023-01-20T09:43:00.720Z,7.68
2023-01-20T09:45:38.410Z,10.70
2023-01-20T09:48:35.841Z,8.15
2023-01-20T09:51:25.585Z,7.10
2023-01-20T09:54:01.883Z,10.77
2023-01-20T09:56:30.932Z,10.05
2023-01-20T09:59:06.460Z,10.07
2023-01-20T10:01:56.055Z,10.65
2023-01-20T10:04:30.886Z,8.00
2023-01-20T10:07:11.084Z,7.72
2023-01-20T10:09:51.835Z,7.22
2023-01-20T10:12:25.956Z,4.57
2023-01-20T10:15:07.354Z,8.10
2023-01-20T10:17:44.743Z,5.28
2023-01-20T10:20:16.157Z,10.32
2023-01-20T10:23:03.118Z,8.35
2023-01-20T10:25:45.322Z,8.73
2023-01-20T10:28:16.929Z,9.50
2023-01-20T10:30:47.038Z,4.72
2023-01-20T10:33:37.661Z,4.55
2023-01-20T10:36:08.532Z,8.55
2023-01-20T10:38:55.712Z,9.02
2023-01-20T10:41:31.078Z,5.90
2023-01-20T10:43:59.377Z,4.55
2023-01-20T10:46:30.170Z,7.45
2023-01-20T10:49:11.941Z,3.25
2023-01-20T10:52:16.352Z,8.05
2023-01-20T10:55:02.204Z,8.35
2023-01-20T10:57:28.936Z,2.60
2023-01-20T11:00:01.915Z,3.42
2023-01-20T11:02:30.260Z,5.47
2023-01-20T11:05:02.736Z,7.43
2023-01-20T11:07:32.958Z,10.02
2023-01-20T11:10:13.519Z,4.43
2023-01-20T11:12:42.097Z,4.80
2023-01-20T11:15:25.181Z,6.57
2023-01-20T11:18:13.450Z,5.93
2023-01-20T11:20:56.458Z,7.47
2023-01-20T11:23:37.791Z,5.47
2023-01-20T11:26:20.355Z,7.45
2023-01-20T11:29:01.742Z,8.48
2023-01-20T11:31:37.338Z,3.90
2023-01-20T11:34:25.178Z,4.93
2023-01-20T11:37:22.108Z,2.42
2023-01-20T11:39:51.549Z,3.60
2023-01-20T11:42:24.770Z,7.38
2023-01-20T11:45:01.054Z,2.95
2023-01-20T11:47:34.675Z,5.50
2023-01-20T11:50:16.529Z,4.25
2023-01-20T11:52:46.975Z,4.88
2023-01-20T11:55:20.156Z,3.55
2023-01-20T11:57:54.179Z,2.42
2023-01-20T12:00:37.238Z,2.33
2023-01-20T12:03:23.177Z,1.92
2023-01-20T12:06:11.358Z,3.20
2023-01-20T12:08:57.485Z,2.72
2023-01-20T12:11:33.491Z,3.65
2023-01-20T12:14:25.186Z,2.78
2023-01-20T12:17:11.929Z,2.20
2023-01-20T12:19:56.703Z,3.63
2023-01-20T12:22:45.916Z,3.17
2023-01-20T12:25:25.165Z,2.63
2023-01-20T12:27:59.154Z,2.30
2023-01-20T12:30:42.126Z,3.08
2023-01-20T12:33:20.805Z,2.00
2023-01-20T12:36:05.332Z,2.30
2023-01-20T12:38:56.509Z,2.50
2023-01-20T12:41:46.084Z,2.08
2023-01-20T12:44:19.208Z,2.50
2023-01-20T12:47:03.960Z,3.90
2023-01-20T12:49:51.749Z,2.38
2023-01-20T12:52:24.468Z,2.35
2023-01-20T12:54:51.095Z,1.75
2023-01-20T12:57:24.940Z,1.80
2023-01-20T13:00:51.286Z,2.00
2023-01-20T13:03:44.282Z,1.85
2023-01-20T13:06:31.153Z,1.70
2023-01-20T13:09:12.175Z,2.33
2023-01-20T13:12:04.213Z,2.15
2023-01-20T13:14:45.913Z,1.65
2023-01-20T13:17:44.625Z,1.90
2023-01-20T13:20:25.044Z,2.65
2023-01-20T13:22:53.488Z,2.22
2023-01-20T13:25:22.245Z,1.48
2023-01-20T13:27:51.275Z,1.90
2023-01-20T13:30:36.693Z,2.13
2023-01-20T13:33:08.509Z,2.15
2023-01-20T13:35:49.738Z,2.15
2023-01-20T13:38:35.807Z,1.90
2023-01-20T13:41:05.889Z,2.13
2023-01-20T13:43:34.442Z,1.45
2023-01-20T13:46:07.024Z,1.30
2023-01-20T13:48:36.107Z,1.88
2023-01-20T13:51:21.590Z,1.73
2023-01-20T13:53:48.234Z,1.50
2023-01-20T13:56:25.077Z,2.30
2023-01-20T13:58:52.346Z,1.90
2023-01-20T14:01:18.940Z,1.95
2023-01-20T14:04:04.390Z,1.20
2023-01-20T14:06:34.028Z,2.42
2023-01-20T14:09:01.375Z,2.15
2023-01-20T14:11:29.659Z,3.20
2023-01-20T14:14:07.270Z,2.13
2023-01-20T14:16:39.194Z,1.80
2023-01-20T14:19:31.805Z,1.70
2023-01-20T14:22:02.647Z,1.70
2023-01-20T14:24:36.392Z,1.88
2023-01-20T14:27:28.135Z,1.63
2023-01-20T14:29:56.800Z,2.33
2023-01-20T14:32:28.274Z,2.03
2023-01-20T14:34:56.120Z,1.98
2023-01-20T14:37:31.456Z,3.10
2023-01-20T14:40:01.300Z,3.17
2023-01-20T14:42:29.656Z,1.33
2023-01-20T14:44:57.376Z,3.60
2023-01-20T14:47:26.359Z,1.77
2023-01-20T14:49:54.160Z,1.67
2023-01-20T14:52:25.973Z,2.15
2023-01-20T14:54:56.054Z,2.47
2023-01-20T14:57:32.200Z,1.67
2023-01-20T15:00:16.919Z,1.50
2023-01-20T15:03:11.852Z,2.10
2023-01-20T15:06:15.233Z,1.95
2023-01-20T15:08:56.764Z,2.53
2023-01-20T15:11:32.471Z,3.35
2023-01-20T15:14:02.032Z,1.42
2023-01-20T15:16:29.652Z,1.40
2023-01-20T15:19:14.624Z,1.75
2023-01-20T15:21:56.234Z,2.08
2023-01-20T15:24:31.388Z,2.83
2023-01-20T15:27:00.498Z,2.38
2023-01-20T15:29:32.627Z,1.92
2023-01-20T15:32:02.226Z,1.98
2023-01-20T15:34:29.267Z,1.33
2023-01-20T15:36:56.535Z,2.20
2023-01-20T15:39:31.725Z,2.28
2023-01-20T15:41:58.662Z,2.35
2023-01-20T15:44:26.081Z,1.50
2023-01-20T15:46:55.944Z,1.83
2023-01-20T15:49:24.991Z,1.67
2023-01-20T15:51:51.823Z,1.60
2023-01-20T15:54:18.420Z,1.55
2023-01-20T15:56:44.995Z,2.47
2023-01-20T15:59:16.966Z,1.40
2023-01-20T16:01:49.808Z,2.95
2023-01-20T16:04:16.868Z,1.50
2023-01-20T16:06:43.805Z,1.27
2023-01-20T16:09:25.416Z,1.60
2023-01-20T16:11:52.218Z,2.55
2023-01-20T16:14:18.889Z,1.58
2023-01-20T16:16:45.497Z,2.83
2023-01-20T16:19:13.452Z,1.58
2023-01-20T16:21:40.502Z,2.00
2023-01-20T16:24:07.650Z,1.17
2023-01-20T16:26:35.566Z,1.40
2023-01-20T16:29:02.189Z,2.30
2023-01-20T16:31:28.928Z,1.52
2023-01-20T16:33:55.952Z,1.50
2023-01-20T16:36:23.860Z,2.63
2023-01-20T16:38:51.510Z,3.03
2023-01-20T16:41:25.159Z,1.88
2023-01-20T16:43:53.466Z,1.50
2023-01-20T16:46:22.770Z,1.30
2023-01-20T16:48:49.704Z,2.38
2023-01-20T16:51:19.577Z,1.50
2023-01-20T16:53:46.241Z,1.42
2023-01-20T16:56:19.077Z,1.33
2023-01-20T16:58:53.470Z,2.50
2023-01-20T17:01:24.432Z,1.40
2023-01-20T17:03:52.908Z,1.80
2023-01-20T17:06:22.844Z,1.13
2023-01-20T17:08:53.348Z,4.13
2023-01-20T17:11:21.487Z,1.52
2023-01-20T17:13:48.618Z,1.55
2023-01-20T17:16:16.190Z,1.55
2023-01-20T17:18:45.547Z,1.80
2023-01-20T17:21:13.735Z,1.30
2023-01-20T17:23:40.777Z,1.40
2023-01-20T17:26:08.935Z,1.80
2023-01-20T17:28:35.653Z,1.08
2023-01-20T17:31:06.698Z,1.70
2023-01-20T17:33:34.194Z,1.20
2023-01-20T17:36:06.240Z,1.20
2023-01-20T17:38:35.713Z,1.40
2023-01-20T17:41:06.857Z,1.35
2023-01-20T17:43:38.704Z,1.33
2023-01-20T17:46:16.712Z,1.20
2023-01-20T17:48:44.193Z,1.75
2023-01-20T17:51:13.483Z,1.48
2023-01-20T17:53:40.978Z,0.82
2023-01-20T17:56:12.861Z,1.35
2023-01-20T17:58:41.760Z,1.25
2023-01-20T18:01:18.218Z,1.20
2023-01-20T18:03:47.204Z,1.50
2023-01-20T18:06:16.377Z,1.42
2023-01-20T18:08:43.611Z,1.17
2023-01-20T18:11:21.558Z,1.13
2023-01-20T18:13:49.623Z,1.30
2023-01-20T18:16:18.300Z,1.27
2023-01-20T18:18:46.561Z,1.40
2023-01-20T18:21:18.094Z,1.20
2023-01-20T18:23:46.001Z,1.40
2023-01-20T18:26:14.210Z,1.20
2023-01-20T18:28:41.950Z,1.63
2023-01-20T18:31:14.278Z,1.15
2023-01-20T18:33:44.385Z,1.13
2023-01-20T18:36:35.697Z,1.45
2023-01-20T18:39:08.054Z,1.40
2023-01-20T18:41:37.549Z,1.30
2023-01-20T18:44:05.311Z,1.50
2023-01-20T18:46:32.012Z,1.20
2023-01-20T18:49:00.031Z,1.35
2023-01-20T18:51:28.672Z,1.40
2023-01-20T18:53:58.313Z,1.40
2023-01-20T18:56:25.869Z,1.38
2023-01-20T18:58:54.075Z,2.10
2023-01-20T19:01:23.774Z,1.27
2023-01-20T19:03:50.767Z,1.30
2023-01-20T19:06:20.604Z,1.35
2023-01-20T19:08:51.091Z,1.60
2023-01-20T19:11:20.467Z,1.55
2023-01-20T19:13:51.377Z,1.48
2023-01-20T19:16:19.492Z,1.40
2023-01-20T19:18:54.385Z,1.30
2023-01-20T19:21:22.047Z,1.27
2023-01-20T19:23:50.199Z,1.10
2023-01-20T19:26:19.863Z,3.78
2023-01-20T19:28:48.605Z,1.48
2023-01-20T19:31:17.970Z,4.93
2023-01-20T19:33:46.162Z,1.10
2023-01-20T19:36:15.050Z,1.30
2023-01-20T19:38:41.950Z,1.27
2023-01-20T19:41:13.747Z,1.35
2023-01-20T19:43:40.965Z,1.40
2023-01-20T19:46:19.699Z,1.30
2023-01-20T19:48:46.347Z,1.40
2023-01-20T19:51:15.836Z,1.92
2023-01-20T19:53:44.278Z,1.25
2023-01-20T19:56:17.060Z,2.75
2023-01-20T19:58:44.660Z,2.42
2023-01-20T20:01:15.759Z,3.47
2023-01-20T20:03:43.082Z,1.27
2023-01-20T20:06:28.706Z,1.45
2023-01-20T20:09:05.201Z,1.75
2023-01-20T20:11:32.409Z,1.70
2023-01-20T20:14:00.937Z,1.70
2023-01-20T20:16:30.378Z,1.73
2023-01-20T20:18:57.920Z,1.30
2023-01-20T20:21:24.917Z,2.10
2023-01-20T20:23:57.283Z,1.85
2023-01-20T20:26:26.540Z,1.40
2023-01-20T20:28:53.910Z,2.65
2023-01-20T20:31:22.401Z,1.50
2023-01-20T20:33:49.079Z,1.45
2023-01-20T20:36:15.763Z,1.23
2023-01-20T20:38:42.458Z,1.40
2023-01-20T20:41:09.875Z,1.25
2023-01-20T20:43:38.009Z,1.40
2023-01-20T20:46:07.236Z,1.73
2023-01-20T20:48:38.634Z,1.35
2023-01-20T20:51:13.900Z,3.03
2023-01-20T20:53:41.558Z,1.98
2023-01-20T20:56:13.226Z,1.30
2023-01-20T20:58:55.278Z,1.35
2023-01-20T21:01:26.931Z,2.63
2023-01-20T21:03:53.987Z,1.30
2023-01-20T21:06:22.512Z,1.35
2023-01-20T21:08:49.445Z,3.13
2023-01-20T21:11:16.019Z,1.98
2023-01-20T21:13:42.663Z,4.90
2023-01-20T21:16:14.084Z,3.28
2023-01-20T21:18:41.551Z,3.97
2023-01-20T21:21:12.073Z,4.32
2023-01-20T21:23:40.859Z,2.60
2023-01-20T21:26:09.946Z,4.60
2023-01-20T21:28:36.871Z,4.15
2023-01-20T21:31:12.594Z,5.35
2023-01-20T21:33:45.579Z,5.53
2023-01-20T21:36:12.980Z,5.28
2023-01-20T21:38:42.807Z,1.30
2023-01-20T21:41:10.436Z,1.40
2023-01-20T21:43:58.804Z,4.68
2023-01-20T21:46:28.312Z,2.00
2023-01-20T21:49:13.677Z,1.25
2023-01-20T21:51:58.954Z,1.48
2023-01-20T21:54:29.881Z,2.10
2023-01-20T21:56:56.894Z,1.40
2023-01-20T21:59:23.788Z,1.38
2023-01-20T22:01:51.032Z,1.20
2023-01-20T22:04:18.173Z,1.20
2023-01-20T22:06:45.013Z,1.70
2023-01-20T22:09:11.967Z,6.25
2023-01-20T22:11:38.719Z,1.60
2023-01-20T22:14:05.437Z,2.05
2023-01-20T22:16:32.308Z,1.48
2023-01-20T22:18:59.134Z,1.20
2023-01-20T22:21:26.244Z,1.27
2023-01-20T22:23:53.619Z,1.05
2023-01-20T22:26:20.214Z,1.50
2023-01-20T22:28:46.784Z,1.63
2023-01-20T22:31:19.577Z,1.20
2023-01-20T22:33:51.042Z,1.40
2023-01-20T22:36:17.729Z,2.63
2023-01-20T22:38:45.837Z,2.90
2023-01-20T22:41:12.735Z,5.43
2023-01-20T22:43:40.947Z,1.27
2023-01-20T22:46:07.558Z,1.67
2023-01-20T22:48:34.668Z,1.70
2023-01-20T22:51:12.722Z,1.52
2023-01-20T22:53:40.440Z,1.60
2023-01-20T22:56:13.191Z,1.40
2023-01-20T22:58:40.367Z,1.80
2023-01-20T23:01:13.529Z,2.03
2023-01-20T23:03:40.638Z,1.45
2023-01-20T23:06:08.437Z,1.25
2023-01-20T23:08:35.271Z,3.88
2023-01-20T23:11:11.081Z,2.95
2023-01-20T23:13:41.314Z,7.72
2023-01-20T23:16:12.828Z,6.38
2023-01-20T23:18:39.422Z,1.52
2023-01-20T23:21:06.647Z,1.35
2023-01-20T23:23:33.613Z,5.72
2023-01-20T23:26:17.714Z,1.75
2023-01-20T23:28:45.974Z,5.68
2023-01-20T23:31:15.250Z,1.27
2023-01-20T23:33:43.816Z,8.00
2023-01-20T23:36:19.577Z,4.93
2023-01-20T23:38:46.280Z,4.75
2023-01-20T23:41:13.915Z,1.35
2023-01-20T23:43:41.599Z,5.38
2023-01-20T23:46:09.635Z,2.78
2023-01-20T23:48:36.713Z,4.35
2023-01-20T23:51:04.730Z,1.20
2023-01-20T23:53:32.840Z,3.78
2023-01-20T23:56:05.306Z,4.90
2023-01-20T23:58:32.577Z,10.60
